Time;durP1;ratioP1;P1;durP2;ratioP2;P2;SDS_P1;SDS_P2;PMS_P1;PMS_P2;Temp;Humidity;BMP_temperature;BMP_pressure;BME280_temperature;BME280_humidity;BME280_pressure;Samples;Min_cycle;Max_cycle;Signal;HPM_P1;HPM_P2
2023/09/29 00:01:56;;;;;;;;;;;13.40;99.90;;;;;;20984790;28;19948;-80
2023/09/29 00:11:57;;;;;;;;;;;13.40;99.90;;;;;;20986943;28;19923;-80
2023/09/29 00:21:58;;;;;;;;;;;13.50;99.90;;;;;;20975204;28;19920;-80
2023/09/29 00:31:59;;;;;;;;;;;13.50;99.90;;;;;;20982837;28;19916;-79
2023/09/29 00:41:59;;;;;;;;;;;13.50;99.90;;;;;;20981486;28;19913;-80
2023/09/29 00:52:01;;;;;;;;;;;13.60;99.90;;;;;;20977353;28;19924;-79
2023/09/29 01:02:04;;;;;;;;;;;13.60;99.90;;;;;;20983674;28;19913;-80
2023/09/29 01:12:05;;;;;;;;;;;13.70;99.90;;;;;;20978554;28;19944;-80
2023/09/29 01:22:06;;;;;;;;;;;13.50;99.90;;;;;;20977617;28;19919;-80
2023/09/29 01:32:10;;;;;;;;;;;13.20;99.90;;;;;;20974079;28;19916;-80
2023/09/29 01:42:11;;;;;;;;;;;13.00;99.90;;;;;;20978876;28;19921;-80
2023/09/29 01:52:12;;;;;;;;;;;13.00;99.90;;;;;;20987222;28;20042;-80
2023/09/29 02:02:12;;;;;;;;;;;13.00;99.90;;;;;;20974255;28;20330;-80
2023/09/29 02:12:14;;;;;;;;;;;12.90;99.90;;;;;;20981174;28;19951;-79
2023/09/29 02:22:16;;;;;;;;;;;12.80;99.90;;;;;;20979001;28;19909;-80
2023/09/29 02:32:17;;;;;;;;;;;12.70;99.90;;;;;;20967239;28;19917;-80
2023/09/29 02:42:17;;;;;;;;;;;12.70;99.90;;;;;;20982978;28;19916;-80
2023/09/29 02:52:18;;;;;;;;;;;12.60;99.90;;;;;;20968108;28;20445;-79
2023/09/29 03:02:19;;;;;;;;;;;12.60;99.90;;;;;;20976195;28;19913;-80
2023/09/29 03:12:21;;;;;;;;;;;12.50;99.90;;;;;;20980310;28;19966;-80
2023/09/29 03:22:23;;;;;;;;;;;12.30;99.90;;;;;;20964653;28;19912;-80
2023/09/29 03:32:23;;;;;;;;;;;12.20;99.90;;;;;;20997671;28;19921;-80
2023/09/29 03:42:24;;;;;;;;;;;12.20;99.90;;;;;;20989465;28;19983;-80
2023/09/29 03:52:25;;;;;;;;;;;12.10;99.90;;;;;;20972767;28;19924;-80
2023/09/29 04:02:26;;;;;;;;;;;12.20;99.90;;;;;;20975947;28;20201;-80
2023/09/29 04:12:27;;;;;;;;;;;12.20;99.90;;;;;;21022236;28;19917;-80
2023/09/29 04:22:28;;;;;;;;;;;12.30;99.90;;;;;;20977031;28;19948;-81
2023/09/29 04:32:28;;;;;;;;;;;12.20;99.90;;;;;;20992371;28;19917;-80
2023/09/29 04:42:29;;;;;;;;;;;12.20;99.90;;;;;;21018900;28;19913;-81
2023/09/29 04:52:29;;;;;;;;;;;12.20;99.90;;;;;;21007821;28;19917;-80
2023/09/29 05:02:30;;;;;;;;;;;12.30;99.90;;;;;;21000504;28;20383;-80
2023/09/29 05:12:31;;;;;;;;;;;12.20;99.90;;;;;;21009029;28;19923;-81
2023/09/29 05:22:32;;;;;;;;;;;12.10;99.90;;;;;;20969759;28;19913;-84
2023/09/29 05:32:33;;;;;;;;;;;12.10;99.90;;;;;;20980551;28;20016;-81
2023/09/29 05:42:36;;;;;;;;;;;12.20;99.90;;;;;;20965801;28;20497;-80
2023/09/29 05:52:36;;;;;;;;;;;12.40;99.90;;;;;;20954274;28;20050;-80
2023/09/29 06:02:37;;;;;;;;;;;12.70;99.90;;;;;;20943587;28;19916;-80
2023/09/29 06:12:38;;;;;;;;;;;13.00;99.90;;;;;;20948972;28;19994;-80
2023/09/29 06:22:38;;;;;;;;;;;13.40;99.90;;;;;;20948125;28;19912;-80
2023/09/29 06:32:39;;;;;;;;;;;13.20;99.90;;;;;;20943520;28;20390;-80
2023/09/29 06:42:40;;;;;;;;;;;13.20;99.90;;;;;;20959413;28;19921;-80
2023/09/29 06:52:40;;;;;;;;;;;13.20;99.90;;;;;;20945907;28;19929;-80
2023/09/29 07:02:41;;;;;;;;;;;13.20;99.90;;;;;;20947744;28;20390;-80
2023/09/29 07:12:42;;;;;;;;;;;13.40;99.90;;;;;;20960876;28;20368;-78
2023/09/29 07:22:42;;;;;;;;;;;13.70;99.90;;;;;;20944897;28;19919;-81
2023/09/29 07:32:43;;;;;;;;;;;15.20;99.90;;;;;;20965874;28;19959;-80
2023/09/29 07:42:44;;;;;;;;;;;15.30;99.90;;;;;;20967646;28;19966;-80
2023/09/29 07:52:44;;;;;;;;;;;16.20;99.90;;;;;;20961215;28;19948;-82
2023/09/29 08:02:45;;;;;;;;;;;17.40;99.90;;;;;;20988143;28;19919;-77
2023/09/29 08:12:46;;;;;;;;;;;18.00;99.90;;;;;;20942489;28;19917;-76
2023/09/29 08:22:46;;;;;;;;;;;19.20;99.90;;;;;;20946240;28;20394;-77
2023/09/29 08:32:47;;;;;;;;;;;18.70;99.90;;;;;;20963128;28;19924;-78
2023/09/29 08:42:49;;;;;;;;;;;18.90;99.90;;;;;;20949602;28;19913;-81
2023/09/29 08:52:50;;;;;;;;;;;19.60;99.90;;;;;;20941176;28;19917;-79
2023/09/29 09:02:51;;;;;;;;;;;20.30;99.90;;;;;;20960045;28;19955;-79
2023/09/29 09:12:52;;;;;;;;;;;21.50;99.90;;;;;;20945170;28;19923;-79
2023/09/29 09:23:00;;;;;;;;;;;21.50;99.90;;;;;;20936661;28;20349;-80
2023/09/29 09:33:01;;;;;;;;;;;23.40;99.90;;;;;;20952184;28;19923;-78
2023/09/29 09:43:10;;;;;;;;;;;23.90;99.90;;;;;;20973764;28;20534;-79
2023/09/29 09:53:13;;;;;;;;;;;23.80;99.90;;;;;;20952169;28;19917;-77
2023/09/29 10:03:16;;;;;;;;;;;24.10;99.90;;;;;;20962843;28;19916;-78
2023/09/29 10:13:16;;;;;;;;;;;23.60;99.90;;;;;;20971234;28;19916;-78
2023/09/29 10:23:18;;;;;;;;;;;24.50;99.90;;;;;;20966335;28;19920;-77
2023/09/29 10:33:18;;;;;;;;;;;26.40;99.90;;;;;;20967300;28;19924;-79
2023/09/29 10:43:25;;;;;;;;;;;28.10;99.90;;;;;;20969901;28;19913;-79
2023/09/29 10:53:35;;;;;;;;;;;28.80;99.90;;;;;;20984112;28;19920;-80
2023/09/29 11:03:35;;;;;;;;;;;28.00;99.90;;;;;;20983211;28;19920;-78
2023/09/29 11:13:39;;;;;;;;;;;27.80;99.90;;;;;;20968600;28;19916;-78
2023/09/29 11:23:45;;;;;;;;;;;27.70;99.90;;;;;;20960375;28;19919;-79
2023/09/29 11:33:45;;;;;;;;;;;28.80;99.90;;;;;;20941334;28;19916;-79
2023/09/29 11:43:46;;;;;;;;;;;28.90;99.90;;;;;;20951784;28;19962;-77
2023/09/29 11:53:48;;;;;;;;;;;28.00;99.90;;;;;;20966177;28;19920;-79
2023/09/29 12:03:49;;;;;;;;;;;28.00;99.90;;;;;;20971249;28;20395;-77
2023/09/29 12:13:49;;;;;;;;;;;29.30;99.90;;;;;;20969410;28;19913;-77
2023/09/29 12:23:50;;;;;;;;;;;29.90;99.90;;;;;;20951593;28;19923;-78
2023/09/29 12:33:53;;;;;;;;;;;27.90;99.90;;;;;;20952470;28;19999;-77
2023/09/29 12:43:54;;;;;;;;;;;28.10;99.90;;;;;;20966161;28;19973;-77
2023/09/29 12:53:55;;;;;;;;;;;28.50;99.90;;;;;;20948710;28;19920;-77
2023/09/29 13:03:55;;;;;;;;;;;28.40;99.90;;;;;;20930970;28;19919;-76
2023/09/29 13:13:56;;;;;;;;;;;27.90;99.90;;;;;;20945831;28;19913;-76
2023/09/29 13:23:57;;;;;;;;;;;26.60;99.90;;;;;;20937622;28;19920;-78
2023/09/29 13:33:57;;;;;;;;;;;28.70;99.90;;;;;;20942210;28;19944;-78
2023/09/29 13:43:58;;;;;;;;;;;27.60;99.90;;;;;;20959420;28;20464;-77
2023/09/29 13:53:58;;;;;;;;;;;27.90;99.90;;;;;;20949190;28;19912;-77
2023/09/29 14:04:00;;;;;;;;;;;26.90;99.90;;;;;;20943756;28;19912;-76
2023/09/29 14:14:01;;;;;;;;;;;26.10;99.90;;;;;;20953477;28;19925;-78
2023/09/29 14:24:02;;;;;;;;;;;26.80;99.90;;;;;;20950806;28;20437;-77
2023/09/29 14:34:03;;;;;;;;;;;27.40;99.90;;;;;;20947276;28;20014;-76
2023/09/29 14:44:04;;;;;;;;;;;26.60;99.90;;;;;;20952987;28;19955;-77
2023/09/29 14:54:05;;;;;;;;;;;26.90;99.90;;;;;;20937435;28;19917;-77
2023/09/29 15:04:05;;;;;;;;;;;27.00;99.90;;;;;;20945861;28;19959;-77
2023/09/29 15:14:06;;;;;;;;;;;26.60;99.90;;;;;;20946405;28;20411;-77
2023/09/29 15:24:07;;;;;;;;;;;26.20;99.90;;;;;;20940395;28;19924;-79
2023/09/29 15:34:08;;;;;;;;;;;25.60;99.90;;;;;;20949281;28;19913;-85
2023/09/29 15:44:09;;;;;;;;;;;25.30;99.90;;;;;;20940502;28;19919;-84
2023/09/29 15:54:09;;;;;;;;;;;24.60;99.90;;;;;;20967123;28;19912;-84
2023/09/29 16:04:11;;;;;;;;;;;23.90;99.90;;;;;;20953002;28;19966;-86
2023/09/29 16:14:12;;;;;;;;;;;23.70;99.90;;;;;;20956105;28;19913;-79
2023/09/29 16:24:13;;;;;;;;;;;23.60;99.90;;;;;;20962459;28;19923;-82
2023/09/29 16:34:13;;;;;;;;;;;22.80;99.90;;;;;;20975471;28;19966;-82
2023/09/29 16:44:14;;;;;;;;;;;22.40;99.90;;;;;;20984088;28;19916;-82
2023/09/29 16:54:18;;;;;;;;;;;22.10;99.90;;;;;;20974409;28;19969;-82
2023/09/29 17:04:19;;;;;;;;;;;21.90;99.90;;;;;;20970631;28;19978;-82
2023/09/29 17:14:20;;;;;;;;;;;21.70;99.90;;;;;;20985013;28;19912;-83
2023/09/29 17:24:20;;;;;;;;;;;21.60;99.90;;;;;;20968580;28;20328;-83
2023/09/29 17:34:21;;;;;;;;;;;21.40;99.90;;;;;;20982806;28;19999;-83
2023/09/29 17:44:22;;;;;;;;;;;21.30;99.90;;;;;;20982320;28;19923;-82
2023/09/29 17:54:22;;;;;;;;;;;21.30;99.90;;;;;;20976584;28;19966;-81
2023/09/29 18:04:23;;;;;;;;;;;21.20;99.90;;;;;;20952121;28;20280;-82
2023/09/29 18:14:24;;;;;;;;;;;21.00;99.90;;;;;;20976552;28;19913;-81
2023/09/29 18:24:25;;;;;;;;;;;20.80;99.90;;;;;;20977875;28;19956;-82
2023/09/29 18:34:26;;;;;;;;;;;20.70;99.90;;;;;;20964779;28;19967;-80
2023/09/29 18:44:28;;;;;;;;;;;20.60;99.90;;;;;;20973336;28;19969;-80
2023/09/29 18:54:30;;;;;;;;;;;20.40;99.90;;;;;;20976971;28;20280;-82
2023/09/29 19:04:31;;;;;;;;;;;20.10;99.90;;;;;;20965213;28;20021;-81
2023/09/29 19:14:31;;;;;;;;;;;19.80;99.90;;;;;;20962340;28;19913;-82
2023/09/29 19:24:32;;;;;;;;;;;19.70;99.90;;;;;;20964313;28;20319;-80
2023/09/29 19:34:33;;;;;;;;;;;19.30;99.90;;;;;;20933342;28;19952;-83
2023/09/29 19:44:33;;;;;;;;;;;19.10;99.90;;;;;;20956172;28;20050;-81
2023/09/29 19:54:34;;;;;;;;;;;18.80;99.90;;;;;;20963479;28;19925;-80
2023/09/29 20:04:37;;;;;;;;;;;18.70;99.90;;;;;;20994603;28;19920;-81
2023/09/29 20:14:38;;;;;;;;;;;18.20;99.90;;;;;;20974078;28;19920;-80
2023/09/29 20:24:38;;;;;;;;;;;17.80;99.90;;;;;;20986292;28;20002;-82
2023/09/29 20:34:39;;;;;;;;;;;17.20;99.90;;;;;;20983080;28;19912;-81
2023/09/29 20:44:40;;;;;;;;;;;16.90;99.90;;;;;;20982086;28;19924;-81
2023/09/29 20:54:40;;;;;;;;;;;16.60;99.90;;;;;;20984726;28;19920;-81
2023/09/29 21:04:41;;;;;;;;;;;16.30;99.90;;;;;;20978035;28;19939;-81
2023/09/29 21:14:42;;;;;;;;;;;16.30;99.90;;;;;;20984806;28;20282;-80
2023/09/29 21:24:43;;;;;;;;;;;16.10;99.90;;;;;;20976631;28;19955;-80
2023/09/29 21:34:43;;;;;;;;;;;16.00;99.90;;;;;;20989735;28;19923;-82
2023/09/29 21:44:44;;;;;;;;;;;16.10;99.90;;;;;;20989511;28;19923;-81
2023/09/29 21:54:44;;;;;;;;;;;16.00;99.90;;;;;;20969514;28;19938;-80
2023/09/29 22:04:45;;;;;;;;;;;15.90;99.90;;;;;;20960713;28;19920;-79
2023/09/29 22:14:46;;;;;;;;;;;16.20;99.90;;;;;;20957396;28;19912;-80
2023/09/29 22:24:47;;;;;;;;;;;16.60;99.90;;;;;;20963025;28;19916;-81
2023/09/29 22:34:48;;;;;;;;;;;16.70;99.90;;;;;;20975801;28;19962;-81
2023/09/29 22:44:49;;;;;;;;;;;16.90;99.90;;;;;;20959141;28;19916;-81
2023/09/29 22:54:50;;;;;;;;;;;16.80;99.90;;;;;;20961654;28;19995;-81
2023/09/29 23:04:51;;;;;;;;;;;16.60;99.90;;;;;;20979504;28;19916;-80
2023/09/29 23:14:51;;;;;;;;;;;16.60;99.90;;;;;;20960463;28;20283;-82
2023/09/29 23:24:52;;;;;;;;;;;16.50;99.90;;;;;;20975334;28;20428;-80
2023/09/29 23:34:52;;;;;;;;;;;16.30;99.90;;;;;;20967955;28;19921;-80
2023/09/29 23:44:53;;;;;;;;;;;16.10;99.90;;;;;;20984138;28;20307;-81
2023/09/29 23:54:55;;;;;;;;;;;16.00;99.90;;;;;;20993294;28;19919;-80
